sensor_id;sensor_type;location;lat;lon;timestamp;pressure;altitude;pressure_sealevel;temperature;humidity
47883;BME280;37739;50.350;7.578;2023-01-31T00:01:03;100619.63;;;4.32;83.71
47883;BME280;37739;50.350;7.578;2023-01-31T00:03:29;100618.97;;;4.35;83.79
47883;BME280;37739;50.350;7.578;2023-01-31T00:05:54;100620.75;;;4.36;83.77
47883;BME280;37739;50.350;7.578;2023-01-31T00:08:19;100635.22;;;4.37;83.83
47883;BME280;37739;50.350;7.578;2023-01-31T00:10:47;100629.50;;;4.39;83.74
47883;BME280;37739;50.350;7.578;2023-01-31T00:13:13;100633.03;;;4.41;83.68
47883;BME280;37739;50.350;7.578;2023-01-31T00:15:38;100630.50;;;4.41;84.10
47883;BME280;37739;50.350;7.578;2023-01-31T00:18:03;100638.13;;;4.41;83.75
47883;BME280;37739;50.350;7.578;2023-01-31T00:20:29;100633.78;;;4.40;83.32
47883;BME280;37739;50.350;7.578;2023-01-31T00:22:54;100633.25;;;4.44;84.10
47883;BME280;37739;50.350;7.578;2023-01-31T00:25:19;100644.06;;;4.42;83.92
47883;BME280;37739;50.350;7.578;2023-01-31T00:27:45;100643.94;;;4.40;83.72
47883;BME280;37739;50.350;7.578;2023-01-31T00:30:11;100648.03;;;4.38;83.83
47883;BME280;37739;50.350;7.578;2023-01-31T00:32:36;100647.91;;;4.37;83.99
47883;BME280;37739;50.350;7.578;2023-01-31T00:35:01;100645.72;;;4.41;84.51
47883;BME280;37739;50.350;7.578;2023-01-31T00:37:27;100648.28;;;4.41;84.65
47883;BME280;37739;50.350;7.578;2023-01-31T00:39:52;100655.34;;;4.45;84.58
47883;BME280;37739;50.350;7.578;2023-01-31T00:42:17;100657.91;;;4.45;84.68
47883;BME280;37739;50.350;7.578;2023-01-31T00:44:43;100664.06;;;4.37;84.32
47883;BME280;37739;50.350;7.578;2023-01-31T00:47:08;100654.31;;;4.31;85.35
47883;BME280;37739;50.350;7.578;2023-01-31T00:49:33;100652.53;;;4.30;85.12
47883;BME280;37739;50.350;7.578;2023-01-31T00:51:59;100652.41;;;4.29;85.41
47883;BME280;37739;50.350;7.578;2023-01-31T00:54:28;100652.66;;;4.32;85.20
47883;BME280;37739;50.350;7.578;2023-01-31T00:56:54;100645.91;;;4.32;85.05
47883;BME280;37739;50.350;7.578;2023-01-31T00:59:21;100646.03;;;4.34;85.06
47883;BME280;37739;50.350;7.578;2023-01-31T01:01:49;100643.38;;;4.32;84.44
47883;BME280;37739;50.350;7.578;2023-01-31T01:04:16;100645.28;;;4.35;84.52
47883;BME280;37739;50.350;7.578;2023-01-31T01:06:42;100644.16;;;4.31;83.92
47883;BME280;37739;50.350;7.578;2023-01-31T01:09:11;100639.63;;;4.27;83.74
47883;BME280;37739;50.350;7.578;2023-01-31T01:11:36;100644.91;;;4.30;83.30
47883;BME280;37739;50.350;7.578;2023-01-31T01:14:02;100648.25;;;4.29;82.88
47883;BME280;37739;50.350;7.578;2023-01-31T01:16:35;100641.25;;;4.27;82.74
47883;BME280;37739;50.350;7.578;2023-01-31T01:19:07;100651.97;;;4.23;82.82
47883;BME280;37739;50.350;7.578;2023-01-31T01:21:33;100646.88;;;4.23;82.53
47883;BME280;37739;50.350;7.578;2023-01-31T01:24:07;100640.03;;;4.22;82.78
47883;BME280;37739;50.350;7.578;2023-01-31T01:26:36;100634.97;;;4.22;82.84
47883;BME280;37739;50.350;7.578;2023-01-31T01:29:02;100636.72;;;4.23;82.55
47883;BME280;37739;50.350;7.578;2023-01-31T01:31:29;100633.19;;;4.21;82.25
47883;BME280;37739;50.350;7.578;2023-01-31T01:33:59;100632.97;;;4.18;82.45
47883;BME280;37739;50.350;7.578;2023-01-31T01:36:25;100648.72;;;4.13;82.05
47883;BME280;37739;50.350;7.578;2023-01-31T01:38:53;100641.63;;;4.09;81.90
47883;BME280;37739;50.350;7.578;2023-01-31T01:41:20;100648.50;;;4.10;82.07
47883;BME280;37739;50.350;7.578;2023-01-31T01:43:49;100644.97;;;4.08;81.63
47883;BME280;37739;50.350;7.578;2023-01-31T01:46:40;100644.59;;;4.04;81.77
47883;BME280;37739;50.350;7.578;2023-01-31T01:49:24;100643.72;;;4.03;82.21
47883;BME280;37739;50.350;7.578;2023-01-31T01:51:55;100646.13;;;4.02;81.99
47883;BME280;37739;50.350;7.578;2023-01-31T01:54:25;100642.59;;;4.00;81.64
47883;BME280;37739;50.350;7.578;2023-01-31T01:56:59;100633.31;;;4.00;81.93
47883;BME280;37739;50.350;7.578;2023-01-31T01:59:31;100646.78;;;3.99;81.44
47883;BME280;37739;50.350;7.578;2023-01-31T02:02:00;100639.94;;;3.98;81.46
47883;BME280;37739;50.350;7.578;2023-01-31T02:04:31;100639.13;;;3.87;80.80
47883;BME280;37739;50.350;7.578;2023-01-31T02:06:58;100636.13;;;3.81;81.70
47883;BME280;37739;50.350;7.578;2023-01-31T02:12:05;100644.47;;;3.80;81.85
47883;BME280;37739;50.350;7.578;2023-01-31T02:14:34;100642.06;;;3.82;81.70
47883;BME280;37739;50.350;7.578;2023-01-31T02:16:59;100634.47;;;3.82;81.54
47883;BME280;37739;50.350;7.578;2023-01-31T02:22:18;100629.53;;;3.73;81.32
47883;BME280;37739;50.350;7.578;2023-01-31T02:31:06;100634.22;;;3.79;81.12
47883;BME280;37739;50.350;7.578;2023-01-31T02:42:18;100627.00;;;3.51;81.39
47883;BME280;37739;50.350;7.578;2023-01-31T02:45:09;100639.63;;;3.39;81.56
47883;BME280;37739;50.350;7.578;2023-01-31T02:48:02;100637.03;;;3.49;81.17
47883;BME280;37739;50.350;7.578;2023-01-31T02:50:44;100646.03;;;3.46;81.04
47883;BME280;37739;50.350;7.578;2023-01-31T02:56:18;100638.03;;;3.51;80.98
47883;BME280;37739;50.350;7.578;2023-01-31T02:58:41;100636.91;;;3.48;80.72
47883;BME280;37739;50.350;7.578;2023-01-31T03:01:16;100648.56;;;3.46;80.65
47883;BME280;37739;50.350;7.578;2023-01-31T03:03:43;100649.88;;;3.41;81.58
47883;BME280;37739;50.350;7.578;2023-01-31T03:08:50;100657.50;;;3.41;80.83
47883;BME280;37739;50.350;7.578;2023-01-31T03:11:17;100650.09;;;3.44;81.07
47883;BME280;37739;50.350;7.578;2023-01-31T03:17:05;100659.38;;;3.43;80.67
47883;BME280;37739;50.350;7.578;2023-01-31T03:20:14;100647.09;;;3.38;81.13
47883;BME280;37739;50.350;7.578;2023-01-31T03:25:16;100644.81;;;3.41;81.69
47883;BME280;37739;50.350;7.578;2023-01-31T03:27:45;100648.22;;;3.41;81.43
47883;BME280;37739;50.350;7.578;2023-01-31T03:30:16;100662.56;;;3.41;80.71
47883;BME280;37739;50.350;7.578;2023-01-31T03:32:48;100656.09;;;3.34;80.55
47883;BME280;37739;50.350;7.578;2023-01-31T03:35:18;100658.03;;;3.26;80.83
47883;BME280;37739;50.350;7.578;2023-01-31T03:37:54;100658.94;;;3.17;81.28
47883;BME280;37739;50.350;7.578;2023-01-31T03:40:29;100652.22;;;3.17;80.79
47883;BME280;37739;50.350;7.578;2023-01-31T03:46:26;100656.66;;;3.20;81.32
47883;BME280;37739;50.350;7.578;2023-01-31T03:48:55;100655.16;;;3.22;81.34
47883;BME280;37739;50.350;7.578;2023-01-31T03:51:26;100648.41;;;3.22;81.32
47883;BME280;37739;50.350;7.578;2023-01-31T03:53:59;100656.50;;;3.28;81.24
47883;BME280;37739;50.350;7.578;2023-01-31T03:56:46;100644.75;;;3.19;81.42
47883;BME280;37739;50.350;7.578;2023-01-31T03:59:25;100644.88;;;3.20;81.12
47883;BME280;37739;50.350;7.578;2023-01-31T04:01:54;100646.28;;;3.17;81.81
47883;BME280;37739;50.350;7.578;2023-01-31T04:04:31;100645.63;;;3.19;81.28
47883;BME280;37739;50.350;7.578;2023-01-31T04:07:02;100638.78;;;3.18;81.57
47883;BME280;37739;50.350;7.578;2023-01-31T04:09:28;100636.00;;;3.15;81.33
47883;BME280;37739;50.350;7.578;2023-01-31T04:11:58;100625.13;;;3.16;81.49
47883;BME280;37739;50.350;7.578;2023-01-31T04:14:23;100622.72;;;3.18;81.36
47883;BME280;37739;50.350;7.578;2023-01-31T04:16:51;100621.66;;;3.15;81.45
47883;BME280;37739;50.350;7.578;2023-01-31T04:19:19;100619.31;;;3.07;81.40
47883;BME280;37739;50.350;7.578;2023-01-31T04:21:44;100621.56;;;3.04;81.45
47883;BME280;37739;50.350;7.578;2023-01-31T04:24:09;100620.97;;;2.96;82.47
47883;BME280;37739;50.350;7.578;2023-01-31T04:26:38;100627.94;;;2.88;81.94
47883;BME280;37739;50.350;7.578;2023-01-31T04:29:05;100625.41;;;2.88;82.53
47883;BME280;37739;50.350;7.578;2023-01-31T04:31:31;100623.66;;;2.87;82.46
47883;BME280;37739;50.350;7.578;2023-01-31T04:33:58;100616.69;;;2.85;82.41
47883;BME280;37739;50.350;7.578;2023-01-31T04:36:24;100626.19;;;2.87;82.41
47883;BME280;37739;50.350;7.578;2023-01-31T04:38:52;100622.78;;;2.87;82.38
47883;BME280;37739;50.350;7.578;2023-01-31T04:41:19;100619.38;;;2.76;82.53
47883;BME280;37739;50.350;7.578;2023-01-31T04:43:49;100626.97;;;2.76;82.36
47883;BME280;37739;50.350;7.578;2023-01-31T04:46:15;100623.03;;;2.69;82.21
47883;BME280;37739;50.350;7.578;2023-01-31T04:48:42;100627.50;;;2.72;82.31
47883;BME280;37739;50.350;7.578;2023-01-31T04:51:10;100620.91;;;2.74;82.77
47883;BME280;37739;50.350;7.578;2023-01-31T04:53:36;100626.09;;;2.65;82.87
47883;BME280;37739;50.350;7.578;2023-01-31T04:56:03;100635.22;;;2.63;83.32
47883;BME280;37739;50.350;7.578;2023-01-31T04:58:30;100640.53;;;2.66;83.11
47883;BME280;37739;50.350;7.578;2023-01-31T05:01:00;100639.78;;;2.57;83.02
47883;BME280;37739;50.350;7.578;2023-01-31T05:03:25;100627.75;;;2.54;83.02
47883;BME280;37739;50.350;7.578;2023-01-31T05:05:50;100634.88;;;2.48;83.29
47883;BME280;37739;50.350;7.578;2023-01-31T05:08:16;100626.88;;;2.44;83.55
47883;BME280;37739;50.350;7.578;2023-01-31T05:10:41;100632.81;;;2.44;83.86
47883;BME280;37739;50.350;7.578;2023-01-31T05:13:09;100626.22;;;2.46;83.65
47883;BME280;37739;50.350;7.578;2023-01-31T05:15:39;100621.28;;;2.48;83.88
47883;BME280;37739;50.350;7.578;2023-01-31T05:18:07;100614.97;;;2.53;83.51
47883;BME280;37739;50.350;7.578;2023-01-31T05:20:35;100607.88;;;2.49;83.51
47883;BME280;37739;50.350;7.578;2023-01-31T05:23:02;100611.66;;;2.44;83.39
47883;BME280;37739;50.350;7.578;2023-01-31T05:25:27;100594.22;;;2.47;83.13
47883;BME280;37739;50.350;7.578;2023-01-31T05:27:53;100601.94;;;2.48;83.45
47883;BME280;37739;50.350;7.578;2023-01-31T05:30:19;100605.88;;;2.45;83.76
47883;BME280;37739;50.350;7.578;2023-01-31T05:32:48;100608.50;;;2.46;83.49
47883;BME280;37739;50.350;7.578;2023-01-31T05:35:14;100602.41;;;2.44;83.88
47883;BME280;37739;50.350;7.578;2023-01-31T05:37:44;100610.78;;;2.43;83.46
47883;BME280;37739;50.350;7.578;2023-01-31T05:40:14;100604.59;;;2.40;83.69
47883;BME280;37739;50.350;7.578;2023-01-31T05:42:40;100604.84;;;2.43;83.59
47883;BME280;37739;50.350;7.578;2023-01-31T05:45:07;100603.84;;;2.41;83.28
47883;BME280;37739;50.350;7.578;2023-01-31T05:47:35;100610.28;;;2.37;84.19
47883;BME280;37739;50.350;7.578;2023-01-31T05:50:00;100610.81;;;2.33;84.03
47883;BME280;37739;50.350;7.578;2023-01-31T05:52:28;100614.81;;;2.31;84.16
47883;BME280;37739;50.350;7.578;2023-01-31T05:54:53;100609.91;;;2.32;84.15
47883;BME280;37739;50.350;7.578;2023-01-31T05:57:18;100605.47;;;2.30;84.24
47883;BME280;37739;50.350;7.578;2023-01-31T05:59:44;100610.41;;;2.28;84.81
47883;BME280;37739;50.350;7.578;2023-01-31T06:02:12;100609.53;;;2.28;84.06
47883;BME280;37739;50.350;7.578;2023-01-31T06:04:42;100610.69;;;2.31;84.09
47883;BME280;37739;50.350;7.578;2023-01-31T06:07:07;100617.63;;;2.34;83.51
47883;BME280;37739;50.350;7.578;2023-01-31T06:09:32;100624.09;;;2.30;83.83
47883;BME280;37739;50.350;7.578;2023-01-31T06:11:58;100625.22;;;2.34;83.79
47883;BME280;37739;50.350;7.578;2023-01-31T06:14:25;100619.66;;;2.28;84.11
47883;BME280;37739;50.350;7.578;2023-01-31T06:16:55;100625.72;;;2.30;83.82
47883;BME280;37739;50.350;7.578;2023-01-31T06:19:20;100637.63;;;2.31;84.67
47883;BME280;37739;50.350;7.578;2023-01-31T06:21:50;100633.97;;;2.27;84.11
47883;BME280;37739;50.350;7.578;2023-01-31T06:24:17;100640.66;;;2.27;84.30
47883;BME280;37739;50.350;7.578;2023-01-31T06:26:45;100644.97;;;2.28;84.65
47883;BME280;37739;50.350;7.578;2023-01-31T06:29:12;100630.31;;;2.24;85.00
47883;BME280;37739;50.350;7.578;2023-01-31T06:31:38;100631.91;;;2.23;84.48
47883;BME280;37739;50.350;7.578;2023-01-31T06:34:03;100635.00;;;2.29;84.04
47883;BME280;37739;50.350;7.578;2023-01-31T06:36:31;100635.09;;;2.31;83.81
47883;BME280;37739;50.350;7.578;2023-01-31T06:39:00;100629.00;;;2.29;85.00
47883;BME280;37739;50.350;7.578;2023-01-31T06:41:30;100645.34;;;2.32;84.38
47883;BME280;37739;50.350;7.578;2023-01-31T06:43:57;100645.75;;;2.37;84.47
47883;BME280;37739;50.350;7.578;2023-01-31T06:46:23;100647.38;;;2.36;83.54
47883;BME280;37739;50.350;7.578;2023-01-31T06:48:50;100639.03;;;2.38;84.42
47883;BME280;37739;50.350;7.578;2023-01-31T06:51:16;100635.50;;;2.35;84.77
47883;BME280;37739;50.350;7.578;2023-01-31T06:53:41;100647.38;;;2.36;84.86
47883;BME280;37739;50.350;7.578;2023-01-31T06:56:07;100649.16;;;2.38;84.75
47883;BME280;37739;50.350;7.578;2023-01-31T06:58:33;100640.69;;;2.37;84.55
47883;BME280;37739;50.350;7.578;2023-01-31T07:01:09;100646.91;;;2.41;85.00
47883;BME280;37739;50.350;7.578;2023-01-31T07:03:34;100632.59;;;2.41;84.43
47883;BME280;37739;50.350;7.578;2023-01-31T07:06:03;100629.16;;;2.41;84.53
47883;BME280;37739;50.350;7.578;2023-01-31T07:08:29;100626.72;;;2.42;84.59
47883;BME280;37739;50.350;7.578;2023-01-31T07:10:55;100627.38;;;2.40;84.62
47883;BME280;37739;50.350;7.578;2023-01-31T07:13:21;100631.44;;;2.38;85.10
47883;BME280;37739;50.350;7.578;2023-01-31T07:15:46;100624.47;;;2.35;85.03
47883;BME280;37739;50.350;7.578;2023-01-31T07:18:11;100642.44;;;2.38;84.77
47883;BME280;37739;50.350;7.578;2023-01-31T07:20:40;100627.38;;;2.40;84.71
47883;BME280;37739;50.350;7.578;2023-01-31T07:23:08;100617.63;;;2.44;84.82
47883;BME280;37739;50.350;7.578;2023-01-31T07:25:37;100618.88;;;2.49;84.87
47883;BME280;37739;50.350;7.578;2023-01-31T07:28:02;100613.81;;;2.49;84.80
47883;BME280;37739;50.350;7.578;2023-01-31T07:30:28;100614.31;;;2.55;84.82
47883;BME280;37739;50.350;7.578;2023-01-31T07:32:56;100607.72;;;2.58;84.62
47883;BME280;37739;50.350;7.578;2023-01-31T07:35:22;100615.22;;;2.56;84.44
47883;BME280;37739;50.350;7.578;2023-01-31T07:37:49;100623.72;;;2.57;84.39
47883;BME280;37739;50.350;7.578;2023-01-31T07:40:15;100620.91;;;2.53;84.35
47883;BME280;37739;50.350;7.578;2023-01-31T07:42:41;100625.38;;;2.56;84.92
47883;BME280;37739;50.350;7.578;2023-01-31T07:45:08;100622.94;;;2.58;84.34
47883;BME280;37739;50.350;7.578;2023-01-31T07:47:35;100623.56;;;2.55;84.44
47883;BME280;37739;50.350;7.578;2023-01-31T07:50:02;100625.22;;;2.54;84.32
47883;BME280;37739;50.350;7.578;2023-01-31T07:52:28;100634.59;;;2.66;84.27
47883;BME280;37739;50.350;7.578;2023-01-31T07:54:54;100629.13;;;2.61;84.10
47883;BME280;37739;50.350;7.578;2023-01-31T07:57:19;100633.97;;;2.58;84.33
47883;BME280;37739;50.350;7.578;2023-01-31T07:59:47;100635.72;;;2.59;84.18
47883;BME280;37739;50.350;7.578;2023-01-31T08:02:14;100629.00;;;2.60;84.42
47883;BME280;37739;50.350;7.578;2023-01-31T08:04:59;100628.25;;;2.61;84.10
47883;BME280;37739;50.350;7.578;2023-01-31T08:07:25;100619.00;;;2.61;83.84
47883;BME280;37739;50.350;7.578;2023-01-31T08:09:56;100622.03;;;2.67;83.91
47883;BME280;37739;50.350;7.578;2023-01-31T08:12:24;100634.06;;;2.80;83.12
47883;BME280;37739;50.350;7.578;2023-01-31T08:14:51;100630.78;;;2.81;83.05
47883;BME280;37739;50.350;7.578;2023-01-31T08:17:19;100623.78;;;2.79;83.12
47883;BME280;37739;50.350;7.578;2023-01-31T08:19:44;100630.78;;;2.81;83.05
47883;BME280;37739;50.350;7.578;2023-01-31T08:22:09;100628.47;;;2.84;82.81
47883;BME280;37739;50.350;7.578;2023-01-31T08:24:40;100629.38;;;2.74;82.76
47883;BME280;37739;50.350;7.578;2023-01-31T08:27:07;100632.91;;;2.77;83.29
47883;BME280;37739;50.350;7.578;2023-01-31T08:29:35;100614.44;;;2.78;82.81
47883;BME280;37739;50.350;7.578;2023-01-31T08:32:00;100614.56;;;2.79;82.60
47883;BME280;37739;50.350;7.578;2023-01-31T08:34:27;100610.25;;;2.78;82.77
47883;BME280;37739;50.350;7.578;2023-01-31T08:36:52;100614.66;;;2.81;82.44
47883;BME280;37739;50.350;7.578;2023-01-31T08:39:17;100609.38;;;2.78;83.02
47883;BME280;37739;50.350;7.578;2023-01-31T08:41:45;100601.47;;;2.85;83.23
47883;BME280;37739;50.350;7.578;2023-01-31T08:44:11;100611.34;;;2.92;83.01
47883;BME280;37739;50.350;7.578;2023-01-31T08:46:41;100617.91;;;3.00;83.07
47883;BME280;37739;50.350;7.578;2023-01-31T08:49:07;100617.50;;;3.06;82.02
47883;BME280;37739;50.350;7.578;2023-01-31T08:51:34;100605.50;;;3.03;82.71
47883;BME280;37739;50.350;7.578;2023-01-31T08:54:02;100624.25;;;3.05;82.43
47883;BME280;37739;50.350;7.578;2023-01-31T08:56:27;100619.31;;;3.07;82.52
47883;BME280;37739;50.350;7.578;2023-01-31T08:58:53;100614.50;;;3.10;82.16
47883;BME280;37739;50.350;7.578;2023-01-31T09:01:20;100620.56;;;3.12;82.43
47883;BME280;37739;50.350;7.578;2023-01-31T09:03:46;100628.16;;;3.12;82.01
47883;BME280;37739;50.350;7.578;2023-01-31T09:06:19;100620.06;;;3.06;82.12
47883;BME280;37739;50.350;7.578;2023-01-31T09:08:47;100615.75;;;3.05;82.20
47883;BME280;37739;50.350;7.578;2023-01-31T09:11:15;100630.19;;;3.06;82.73
47883;BME280;37739;50.350;7.578;2023-01-31T09:13:44;100621.34;;;3.01;83.07
47883;BME280;37739;50.350;7.578;2023-01-31T09:16:12;100624.03;;;3.02;82.93
47883;BME280;37739;50.350;7.578;2023-01-31T09:18:41;100607.16;;;3.03;83.46
47883;BME280;37739;50.350;7.578;2023-01-31T09:21:15;100590.41;;;3.05;83.24
47883;BME280;37739;50.350;7.578;2023-01-31T09:23:43;100595.22;;;3.12;82.95
47883;BME280;37739;50.350;7.578;2023-01-31T09:26:12;100607.50;;;3.18;82.94
47883;BME280;37739;50.350;7.578;2023-01-31T09:28:38;100609.25;;;3.19;82.69
47883;BME280;37739;50.350;7.578;2023-01-31T09:31:09;100619.13;;;3.26;83.09
47883;BME280;37739;50.350;7.578;2023-01-31T09:33:35;100618.94;;;3.34;83.07
47883;BME280;37739;50.350;7.578;2023-01-31T09:36:04;100627.94;;;3.41;82.50
47883;BME280;37739;50.350;7.578;2023-01-31T09:38:32;100628.81;;;3.42;82.63
47883;BME280;37739;50.350;7.578;2023-01-31T09:41:00;100626.03;;;3.39;82.53
47883;BME280;37739;50.350;7.578;2023-01-31T09:43:32;100619.66;;;3.44;82.67
47883;BME280;37739;50.350;7.578;2023-01-31T09:46:01;100616.66;;;3.38;82.43
47883;BME280;37739;50.350;7.578;2023-01-31T09:48:30;100603.19;;;3.39;82.92
47883;BME280;37739;50.350;7.578;2023-01-31T09:50:58;100593.16;;;3.40;82.97
47883;BME280;37739;50.350;7.578;2023-01-31T09:53:29;100615.00;;;3.38;83.00
47883;BME280;37739;50.350;7.578;2023-01-31T09:59:04;100619.25;;;3.49;82.71
47883;BME280;37739;50.350;7.578;2023-01-31T10:01:43;100616.84;;;3.51;82.10
47883;BME280;37739;50.350;7.578;2023-01-31T10:04:38;100626.34;;;3.53;82.20
47883;BME280;37739;50.350;7.578;2023-01-31T10:07:16;100623.69;;;3.52;82.11
47883;BME280;37739;50.350;7.578;2023-01-31T10:15:00;100579.22;;;3.45;82.23
47883;BME280;37739;50.350;7.578;2023-01-31T10:17:36;100573.66;;;3.39;82.54
47883;BME280;37739;50.350;7.578;2023-01-31T10:22:42;100569.34;;;3.38;82.45
47883;BME280;37739;50.350;7.578;2023-01-31T10:25:37;100565.16;;;3.39;82.45
47883;BME280;37739;50.350;7.578;2023-01-31T10:33:47;100565.53;;;3.43;82.03
47883;BME280;37739;50.350;7.578;2023-01-31T10:36:27;100543.44;;;3.42;82.18
47883;BME280;37739;50.350;7.578;2023-01-31T10:44:26;100555.56;;;3.57;81.89
47883;BME280;37739;50.350;7.578;2023-01-31T10:47:01;100546.16;;;3.56;81.29
47883;BME280;37739;50.350;7.578;2023-01-31T10:49:27;100555.59;;;3.46;82.07
47883;BME280;37739;50.350;7.578;2023-01-31T10:52:11;100544.16;;;3.51;81.95
47883;BME280;37739;50.350;7.578;2023-01-31T10:54:52;100545.34;;;3.45;81.69
47883;BME280;37739;50.350;7.578;2023-01-31T10:57:26;100540.81;;;3.41;81.88
47883;BME280;37739;50.350;7.578;2023-01-31T10:59:52;100543.03;;;3.48;82.13
47883;BME280;37739;50.350;7.578;2023-01-31T11:02:25;100536.34;;;3.48;82.21
47883;BME280;37739;50.350;7.578;2023-01-31T11:04:53;100537.97;;;3.48;81.68
47883;BME280;37739;50.350;7.578;2023-01-31T11:07:19;100517.53;;;3.46;81.84
47883;BME280;37739;50.350;7.578;2023-01-31T11:09:50;100517.16;;;3.30;81.68
47883;BME280;37739;50.350;7.578;2023-01-31T11:12:38;100511.13;;;3.40;81.87
47883;BME280;37739;50.350;7.578;2023-01-31T11:15:16;100506.66;;;3.47;81.55
47883;BME280;37739;50.350;7.578;2023-01-31T11:17:46;100493.28;;;3.50;81.61
47883;BME280;37739;50.350;7.578;2023-01-31T11:20:23;100490.47;;;3.57;81.66
47883;BME280;37739;50.350;7.578;2023-01-31T11:22:55;100490.13;;;3.52;81.79
47883;BME280;37739;50.350;7.578;2023-01-31T11:25:22;100501.63;;;3.59;82.07
47883;BME280;37739;50.350;7.578;2023-01-31T11:27:51;100497.31;;;3.58;81.22
47883;BME280;37739;50.350;7.578;2023-01-31T11:30:30;100486.63;;;3.62;81.38
47883;BME280;37739;50.350;7.578;2023-01-31T11:32:56;100471.97;;;3.70;81.17
47883;BME280;37739;50.350;7.578;2023-01-31T11:40:32;100460.50;;;3.75;81.01
47883;BME280;37739;50.350;7.578;2023-01-31T11:45:29;100462.72;;;3.82;80.83
47883;BME280;37739;50.350;7.578;2023-01-31T11:47:58;100456.91;;;3.83;80.78
47883;BME280;37739;50.350;7.578;2023-01-31T11:50:32;100444.75;;;3.79;80.98
47883;BME280;37739;50.350;7.578;2023-01-31T11:55:45;100434.38;;;3.88;80.56
47883;BME280;37739;50.350;7.578;2023-01-31T11:58:24;100439.69;;;3.91;80.38
47883;BME280;37739;50.350;7.578;2023-01-31T12:00:57;100429.84;;;3.84;80.64
47883;BME280;37739;50.350;7.578;2023-01-31T12:03:24;100420.13;;;3.78;80.56
47883;BME280;37739;50.350;7.578;2023-01-31T12:06:00;100408.00;;;3.86;80.88
47883;BME280;37739;50.350;7.578;2023-01-31T12:08:37;100400.84;;;3.92;80.63
47883;BME280;37739;50.350;7.578;2023-01-31T12:11:27;100397.84;;;3.98;80.48
47883;BME280;37739;50.350;7.578;2023-01-31T12:16:29;100394.22;;;3.94;81.09
47883;BME280;37739;50.350;7.578;2023-01-31T12:27:26;100378.22;;;3.95;81.07
47883;BME280;37739;50.350;7.578;2023-01-31T12:38:39;100364.19;;;4.00;81.33
47883;BME280;37739;50.350;7.578;2023-01-31T13:00:02;100306.03;;;3.91;83.65
47883;BME280;37739;50.350;7.578;2023-01-31T13:05:26;100295.88;;;4.03;82.98
47883;BME280;37739;50.350;7.578;2023-01-31T13:13:50;100289.56;;;4.22;82.87
47883;BME280;37739;50.350;7.578;2023-01-31T13:16:41;100293.97;;;4.24;82.60
47883;BME280;37739;50.350;7.578;2023-01-31T13:19:32;100292.97;;;4.22;82.61
47883;BME280;37739;50.350;7.578;2023-01-31T13:22:01;100292.41;;;4.26;82.74
47883;BME280;37739;50.350;7.578;2023-01-31T13:24:38;100284.03;;;4.27;82.46
47883;BME280;37739;50.350;7.578;2023-01-31T13:29:42;100278.19;;;4.17;83.03
47883;BME280;37739;50.350;7.578;2023-01-31T13:34:59;100276.31;;;4.14;83.21
47883;BME280;37739;50.350;7.578;2023-01-31T13:37:27;100284.13;;;4.17;82.73
47883;BME280;37739;50.350;7.578;2023-01-31T13:40:01;100283.91;;;4.26;82.52
47883;BME280;37739;50.350;7.578;2023-01-31T13:42:29;100267.88;;;4.27;82.69
47883;BME280;37739;50.350;7.578;2023-01-31T13:45:02;100277.28;;;4.28;82.88
47883;BME280;37739;50.350;7.578;2023-01-31T13:47:36;100294.25;;;4.29;82.46
47883;BME280;37739;50.350;7.578;2023-01-31T13:52:53;100282.38;;;4.16;83.18
47883;BME280;37739;50.350;7.578;2023-01-31T13:55:37;100278.72;;;4.24;83.11
47883;BME280;37739;50.350;7.578;2023-01-31T13:58:04;100264.16;;;4.22;83.15
47883;BME280;37739;50.350;7.578;2023-01-31T14:00:39;100272.19;;;4.28;83.44
47883;BME280;37739;50.350;7.578;2023-01-31T14:03:10;100283.09;;;4.39;83.08
47883;BME280;37739;50.350;7.578;2023-01-31T14:13:46;100296.31;;;4.46;82.84
47883;BME280;37739;50.350;7.578;2023-01-31T14:18:55;100298.31;;;4.50;82.81
47883;BME280;37739;50.350;7.578;2023-01-31T14:21:41;100300.06;;;4.51;83.28
47883;BME280;37739;50.350;7.578;2023-01-31T14:24:18;100302.19;;;4.45;83.51
47883;BME280;37739;50.350;7.578;2023-01-31T14:29:21;100279.44;;;4.47;83.26
47883;BME280;37739;50.350;7.578;2023-01-31T14:31:51;100278.44;;;4.45;83.31
47883;BME280;37739;50.350;7.578;2023-01-31T14:34:24;100274.03;;;4.42;83.64
47883;BME280;37739;50.350;7.578;2023-01-31T14:45:41;100276.44;;;4.52;83.75
47883;BME280;37739;50.350;7.578;2023-01-31T14:53:34;100274.31;;;4.59;83.41
47883;BME280;37739;50.350;7.578;2023-01-31T14:58:53;100271.34;;;4.52;84.17
47883;BME280;37739;50.350;7.578;2023-01-31T15:01:20;100270.78;;;4.57;84.04
47883;BME280;37739;50.350;7.578;2023-01-31T15:03:56;100275.66;;;4.53;84.27
47883;BME280;37739;50.350;7.578;2023-01-31T15:06:32;100271.66;;;4.57;84.12
47883;BME280;37739;50.350;7.578;2023-01-31T15:11:51;100270.50;;;4.65;84.06
47883;BME280;37739;50.350;7.578;2023-01-31T15:14:41;100266.53;;;4.69;83.93
47883;BME280;37739;50.350;7.578;2023-01-31T15:17:20;100257.63;;;4.62;84.22
47883;BME280;37739;50.350;7.578;2023-01-31T15:19:52;100270.44;;;4.64;83.82
47883;BME280;37739;50.350;7.578;2023-01-31T15:22:20;100288.41;;;4.67;83.86
47883;BME280;37739;50.350;7.578;2023-01-31T15:25:05;100292.91;;;4.71;84.17
47883;BME280;37739;50.350;7.578;2023-01-31T15:27:36;100277.66;;;4.71;84.09
47883;BME280;37739;50.350;7.578;2023-01-31T15:30:12;100283.44;;;4.68;84.52
47883;BME280;37739;50.350;7.578;2023-01-31T15:32:57;100287.66;;;4.68;84.66
47883;BME280;37739;50.350;7.578;2023-01-31T15:35:31;100280.91;;;4.68;85.05
47883;BME280;37739;50.350;7.578;2023-01-31T15:40:26;100282.09;;;4.74;84.75
47883;BME280;37739;50.350;7.578;2023-01-31T15:42:55;100285.19;;;4.69;85.27
47883;BME280;37739;50.350;7.578;2023-01-31T15:45:40;100290.38;;;4.71;84.99
47883;BME280;37739;50.350;7.578;2023-01-31T15:48:14;100288.75;;;4.71;85.30
47883;BME280;37739;50.350;7.578;2023-01-31T15:50:54;100291.94;;;4.69;85.27
47883;BME280;37739;50.350;7.578;2023-01-31T15:53:23;100289.63;;;4.72;84.93